Left Banner
 
 

2017 Leader of the Pack 5K

Overall Finish List

May 20, 2017


Timing & Event Services by Event Mercenaries, Inc.

5K

Place Name City Bib No Age Gender Age Group Total Time Pace
1 Gunner Hogston 581 14 M 1 OPEN 18:14.3 5:53/M
2 Jonathan Thacker Bakersville NC 350 39 M 2 OPEN 18:37.6 6:00/M
3 Isaiah Washington Rutherfordton NC 377 17 M 3 OPEN 18:49.2 6:04/M
4 Evan Revis Rutherfordton NC 294 16 M 1 15-19 20:32.5 6:37/M
5 Sammy Peticos Ellenboro NC 556 18 M 2 15-19 20:36.5 6:39/M
6 Gregory Stearns Rutherfordton NC 335 29 M 1 25-29 20:43.5 6:41/M
7 Dave Schoenmann Chesnee SC 568 37 M 1 35-39 20:46.3 6:42/M
8 Christopher Upton Rutherfordton NC 365 13 M 1 13-14 21:07.7 6:49/M
9 Tyler Champion Forest City NC 542 17 M 3 15-19 21:27.5 6:55/M
10 Curtis Beason Shelby NC 19 28 M 2 25-29 21:32.8 6:57/M
11 Amy Edelstein Shelby NC 101 39 F 1 OPEN 21:39.9 6:59/M
12 Edgar Fabian Forest City NC 575 18 M 4 15-19 22:09.5 7:09/M
13 Lauren Revis Rutherfordton NC 295 18 F 2 OPEN 22:24.0 7:14/M
14 Morgan Miskell Shelby NC 240 48 M 1 Master 22:34.6 7:17/M
15 Melanie Butler Forest City NC 50 43 F 3 OPEN 22:55.7 7:24/M
16 Preston Walker Forest City NC 507 17 M 5 15-19 23:18.0 7:31/M
17 Tremaine Stewart Forest City NC 336 17 M 6 15-19 23:20.7 7:32/M
18 Casey Sumner Spartanburg SC 342 34 F 1 30-34 23:21.0 7:32/M
19 Timothy Lovelace Mooresboro NC 213 52 M 2 Master 23:29.9 7:35/M
20 Avery Champion Forest City NC 541 15 M 7 15-19 23:39.8 7:38/M
21 Nicholas Elton Lake Lure NC 509 28 M 3 25-29 23:54.8 7:43/M
22 Sully Carpenter Forest City NC 61 19 M 8 15-19 23:58.8 7:44/M
23 Mark Teague Rutherfordton NC 347 12 M 1 11-12 24:21.1 7:51/M
24 Landon Smith Granite Falls NC 332 10 M 1 9-10 24:25.1 7:53/M
25 Jacob Hendricks Ellenboro NC 163 9 M 2 9-10 24:26.1 7:53/M
26 Larry Curtis Forest City NC 82 56 M 1 55-59 24:42.7 7:58/M
27 Brett Towery 364 15 M 9 15-19 24:55.5 8:02/M
28 Alston Worthy Forest City NC 388 14 M 2 13-14 25:01.6 8:04/M
29 Barry Hill Bostic NC 169 50 M 1 50-54 25:10.4 8:07/M
30 Tyler Deaton Bostic NC 88 27 M 4 25-29 25:26.6 8:12/M
31 David Bridges Shelby NC 578 57 M 2 55-59 25:28.1 8:13/M
32 Chris Eason Gastonia NC 516 54 M 2 50-54 25:34.9 8:15/M
33 Chance Baker Hickory NC 15 10 M 3 9-10 25:42.8 8:17/M
34 David Butler Forest City NC 48 47 M 1 45-49 25:50.9 8:20/M
35 Levi Vogel Rutherfordton NC 375 11 M 2 11-12 25:58.4 8:23/M
36 Ryan Hodge Ellenboro NC 400 32 M 1 30-34 26:05.9 8:25/M
37 Casey Peeler Shelby NC 273 35 F 1 35-39 26:08.4 8:26/M
38 Amy Smith Forest City NC 326 48 F 1 Master 26:17.1 8:29/M
39 Renee Howard Union Mills NC 560 36 F 2 35-39 26:27.8 8:32/M
40 Dawson Hardin Ellenboro NC 155 10 M 4 9-10 26:45.2 8:38/M
41 Jennifer Coffey Forest City NC 515 32 F 2 30-34 26:46.0 8:38/M
42 Sammy Beheler Forest City NC 21 15 M 10 15-19 26:52.3 8:40/M
43 Ben Towery 363 11 M 3 11-12 27:02.9 8:43/M
44 Kaylee Keever Rutherfordton NC 199 22 F 1 20-24 27:04.3 8:44/M
45 Chris Francis Rutherfordton NC 544 42 M 1 40-44 27:17.0 8:48/M
46 Deshea Briscoe Forest City NC 38 28 M 5 25-29 27:19.4 8:49/M
47 Zander McKinney Forest City NC 234 10 M 5 9-10 27:54.4 9:00/M
48 Sydney Carpenter Forest City NC 62 16 F 1 15-19 27:57.9 9:01/M
49 Jim Owens Kings Mountain NC 264 71 M 1 70-74 28:01.1 9:02/M
50 Jerry Sanders Bessemer City NC 306 49 M 2 45-49 28:06.0 9:04/M
51 Roselyn Enriquez Forest City NC 109 11 F 1 11-12 28:07.4 9:04/M
52 Matt Emery Mooresboro NC 107 35 M 2 35-39 28:08.6 9:05/M
53 Tim Torvinen Forest City NC 362 45 M 3 45-49 28:09.1 9:05/M
54 Misha Dotson Rutherfordton NC 545 44 F 2 Master 28:13.7 9:06/M
55 Riley Coldren Forest City NC 539 10 M 6 9-10 28:23.6 9:09/M
56 Jacob Holland Forest City NC 180 10 M 7 9-10 28:32.0 9:12/M
57 Hunter Hendricks Ellenboro NC 162 13 M 3 13-14 28:36.9 9:14/M
58 Mollie Burgess Ellenboro NC 46 9 F 1 9-10 28:41.1 9:15/M
59 Sandy Carlton Shelby NC 535 65 M 1 65-69 28:56.6 9:20/M
60 Laurence Penrose Bostic NC 502 75 M 1 75-99 29:00.1 9:21/M
61 Gary Early Ellenboro NC 99 66 M 2 65-69 29:02.4 9:22/M
62 Lucy Sherburne Forest City NC 312 6 F 1 5- 6 29:03.5 9:22/M
63 Ryan Sherburne Forest City NC 314 45 M 4 45-49 29:04.7 9:23/M
64 Faith Vogel Rutherfordton NC 374 14 F 1 13-14 29:06.7 9:23/M
65 Kc Rollins Forest City NC 576 28 M 6 25-29 29:14.0 9:26/M
66 Tiana Teague Rutherfordton NC 349 41 F 1 40-44 29:18.2 9:27/M
67 Leah Robbins Forest City NC 299 43 F 2 40-44 29:23.7 9:29/M
68 Jordan Gray Forest City NC 571 17 F 2 15-19 29:24.5 9:29/M
69 Parker Emery Mooresboro NC 108 12 M 4 11-12 29:40.0 9:34/M
70 Kaleb Crowe Forest City NC 80 13 M 4 13-14 29:49.2 9:37/M
71 Denise Strickland Ellenboro NC 338 53 F 1 50-54 29:52.5 9:38/M
72 Zeke Wilkerson Bostic NC 551 15 M 11 15-19 29:53.6 9:38/M
73 Maia Teague Rutherfordton NC 346 15 F 3 15-19 30:02.7 9:41/M
74 Kristen McBrayer Forest City NC 394 15 F 4 15-19 30:06.1 9:43/M
75 Keith Silver Rutherfordton NC 316 39 M 3 35-39 30:07.5 9:43/M
76 Bruce Putnam Shelby NC 290 64 M 1 60-64 30:07.9 9:43/M
77 Keith Ezell 520 47 M 5 45-49 30:13.1 9:45/M
78 Cadence Epley Rutherfordton NC 111 10 F 2 9-10 30:32.8 9:51/M
79 Malikhi Lowery Forest City NC 217 8 M 1 7- 8 30:35.2 9:52/M
80 Keith Atkins Forest City NC 11 54 M 3 50-54 30:41.3 9:54/M
81 Caiden Little Ellenboro NC 207 11 M 5 11-12 30:51.0 9:57/M
82 Michael Elliott Forest City NC 103 9 M 8 9-10 30:51.3 9:57/M
83 Ayson Boyce Ellenboro NC 29 9 M 9 9-10 30:52.7 9:57/M
84 Hannah Summerlin Forest City NC 341 25 F 1 25-29 30:58.6 9:59/M
85 Savannah Hail 521 10 F 3 9-10 31:00.9 10:00/M
86 Madison Guffey Rutherfordton NC 147 12 F 2 11-12 31:02.4 10:01/M
87 Brad Wilkerson Forest City NC 552 43 M 2 40-44 31:17.6 10:05/M
88 Kasey Eskridge Moore SC 113 28 F 2 25-29 31:20.0 10:06/M
89 Joe Buchanan Forest City NC 45 52 M 4 50-54 31:23.8 10:07/M
90 Devin Mosley Forest City NC 254 11 M 6 11-12 31:40.1 10:13/M
91 Kaylin Hooper Forest City NC 567 10 F 4 9-10 31:42.3 10:14/M
92 Beckett Webber Rutherfordton NC 379 10 M 10 9-10 31:44.5 10:14/M
93 Roxanne Stiles Shelby NC 337 45 F 1 45-49 31:49.6 10:16/M
94 Joselin Varela Forest City NC 367 11 F 3 11-12 31:55.5 10:18/M
95 Dan Vogel Rutherfordton NC 373 46 M 6 45-49 32:02.8 10:20/M
96 Stephen Walker Forest City NC 506 42 M 3 40-44 32:08.1 10:22/M
97 Nick Elliott Forest City NC 104 42 M 4 40-44 32:18.1 10:25/M
98 Sam Gosnell Rutherfordton NC 133 10 M 11 9-10 32:22.9 10:26/M
99 Jude Fountain Rutherfordton NC 557 0 M 1 0- 0 32:23.3 10:27/M
100 Madison Bradley Forest City NC 33 12 F 4 11-12 32:25.4 10:27/M
 
Place Name City Bib No Age Gender Age Group Total Time Pace
101 Sharon Jacob Rutherfordton NC 505 50 F 2 50-54 32:41.4 10:33/M
102 Dana Bradley Rutherfordton NC 31 36 F 3 35-39 32:51.1 10:36/M
103 Madyson Roland Forest City NC 304 11 F 5 11-12 32:52.2 10:36/M
104 Philip Teague Rutherfordton NC 348 9 M 12 9-10 33:01.2 10:39/M
105 Buffy Fountain Rutherfordton NC 559 44 F 3 40-44 33:05.6 10:40/M
106 Olive Gosnell Rutherfordton NC 132 8 F 1 7- 8 33:05.9 10:40/M
107 Todd Harris Forest City NC 554 43 M 5 40-44 33:06.5 10:41/M
108 Sesar Velasquez Forest City NC 368 11 M 7 11-12 33:13.5 10:43/M
109 Jenna Roberson Forest City NC 300 11 F 6 11-12 33:17.3 10:44/M
110 Kirk Wilkerson Bostic NC 550 48 M 7 45-49 33:29.0 10:48/M
111 Kendrick MacOpson Forest City NC 537 16 M 12 15-19 33:30.6 10:48/M
112 Joey Strickland Ellenboro NC 339 60 M 2 60-64 33:33.4 10:49/M
113 Antonia Briscoe Ellenboro NC 534 11 F 7 11-12 33:37.8 10:51/M
114 Johnathon Bach Ellenboro NC 12 10 M 13 9-10 33:42.9 10:52/M
115 Alayah Moore Bostic NC 243 11 F 8 11-12 33:44.5 10:53/M
116 Mary Grace Tisdale Union Mills NC 358 11 F 9 11-12 33:44.9 10:53/M
117 Mcentire Gary Rutherfordton NC 517 47 M 8 45-49 33:52.7 10:55/M
118 Zalbador Velasquez Forest City NC 370 12 M 8 11-12 33:55.4 10:56/M
119 Matthew Butler Forest City NC 49 11 M 9 11-12 34:02.6 10:59/M
120 Sarah Tisdale Union Mills NC 359 38 F 4 35-39 34:10.7 11:01/M
121 Lacey Deaton Bostic NC 87 26 F 3 25-29 34:16.4 11:03/M
122 Leigh Owens Rutherfordton NC 265 49 F 2 45-49 34:18.2 11:04/M
123 Lydia Beheler 20 11 F 10 11-12 34:21.8 11:05/M
124 Brook Jarrell Forest City NC 192 10 M 14 9-10 34:24.6 11:06/M
125 Lejen Mosley Forest City NC 256 9 M 15 9-10 34:24.7 11:06/M
126 Logan Roberson Forest City NC 301 10 M 16 9-10 34:25.1 11:06/M
127 Jan Deviney Casar NC 92 50 F 3 50-54 34:27.7 11:07/M
128 Braden O'Connell Forest City NC 260 8 M 2 7- 8 34:28.0 11:07/M
129 Chelsea Lovelace Rutherfordton NC 212 29 F 4 25-29 34:50.5 11:14/M
130 Ashley Greene Ellenboro NC 136 31 F 3 30-34 34:50.6 11:14/M
131 Carrigan Epley Rutherfordton NC 112 8 F 2 7- 8 34:59.0 11:17/M
132 Abby Smith Bostic NC 325 17 F 5 15-19 35:09.8 11:20/M
133 Robin Smith Bostic NC 333 54 F 4 50-54 35:10.2 11:21/M
134 Felix Thompson Rutherfordton NC 355 10 M 17 9-10 35:37.9 11:29/M
135 Cameron Crawford Rutherfordton NC 78 10 M 18 9-10 35:41.9 11:31/M
136 Jessica Matthews Union Mills NC 222 39 F 5 35-39 35:45.2 11:32/M
137 Ashawn Camp 54 8 M 3 7- 8 36:00.5 11:37/M
138 Jada Whitesides 381 11 F 11 11-12 36:01.2 11:37/M
139 Susan Simpson Kings Mountain NC 318 51 F 5 50-54 36:02.9 11:37/M
140 Jenny Faulkner Forest City NC 114 35 F 6 35-39 36:03.1 11:38/M
141 Victoria Faulkner Forest City NC 115 13 F 2 13-14 36:05.1 11:38/M
142 Trajan Littlejohn Forest City NC 209 8 M 4 7- 8 36:08.6 11:39/M
143 Dash Cureton Forest City NC 81 9 M 19 9-10 36:08.6 11:39/M
144 Daniel Worthy Mooresboro NC 580 45 M 9 45-49 36:09.9 11:40/M
145 Blakely Robbins Forest City NC 298 17 F 6 15-19 36:11.9 11:40/M
146 Lillie Mei Wilkerson Bostic NC 553 10 M 20 9-10 36:16.3 11:42/M
147 Zaira Escalera Rutherfordton NC 510 11 F 12 11-12 36:16.7 11:42/M
148 Denise Hill Bostic NC 171 55 F 1 55-59 36:19.8 11:43/M
149 Daylan Littlejohn Forest City NC 208 7 M 5 7- 8 36:28.3 11:46/M
150 Emmanuel Pimentel Forest City NC 281 18 M 13 15-19 36:29.0 11:46/M
151 Conrad Sherburne Forest City NC 311 8 M 6 7- 8 36:30.7 11:46/M
152 Stanley Wilkins Forest City NC 524 15 M 14 15-19 36:32.9 11:47/M
153 Mickey Moore Bostic NC 246 42 F 4 40-44 36:48.9 11:52/M
154 Amanda McBrayer Bostic NC 501 28 F 5 25-29 36:55.4 11:55/M
155 Ayla Smith Forest City NC 327 10 F 5 9-10 37:11.1 12:00/M
156 Damian Goodnight Forest City NC 130 12 M 10 11-12 37:19.3 12:02/M
157 Alejandro Arrendondo Forest City NC 6 11 M 11 11-12 37:19.6 12:02/M
158 Rhonda Hollifield Bostic NC 562 46 F 3 45-49 37:20.8 12:03/M
159 Porscha Elton Lake Lure NC 508 25 F 6 25-29 37:23.5 12:04/M
160 Lukas Thompson Forest City NC 356 8 M 7 7- 8 37:37.8 12:08/M
161 Jackson Gray Forest City NC 134 9 M 21 9-10 37:37.8 12:08/M
162 Landon Gooch Forest City NC 129 8 M 8 7- 8 37:37.9 12:08/M
163 Kody Dalton Forest City NC 84 9 M 22 9-10 37:38.1 12:08/M
164 Adrian Fox Forest City NC 119 10 M 23 9-10 37:48.8 12:12/M
165 Ashley Thomas Forest City NC 351 29 F 7 25-29 37:52.3 12:13/M
166 Chance Toney Rutherfordton NC 360 9 M 24 9-10 38:03.1 12:16/M
167 Lauren Beard Forest City NC 18 27 F 8 25-29 38:03.6 12:16/M
168 Fran Fowler 118 41 F 5 40-44 38:07.5 12:18/M
169 Keira MacOpson Forest City NC 220 9 F 6 9-10 38:10.2 12:19/M
170 Mark Gosnell Rutherfordton NC 131 46 M 10 45-49 38:10.6 12:19/M
171 Maleah Radford Forest City NC 293 8 F 3 7- 8 38:14.7 12:20/M
172 Kristen Brown Bostic NC 40 34 F 4 30-34 38:28.7 12:25/M
173 Brian Gooch Forest City NC 128 36 M 4 35-39 38:29.4 12:25/M
174 Makalyn Silvers 529 9 F 7 9-10 38:35.9 12:27/M
175 Shane Dotson Rutherfordton NC 96 40 M 6 40-44 38:36.4 12:27/M
176 Chase Dotson Forest City NC 95 8 M 9 7- 8 38:37.4 12:27/M
177 Katherine Horton Forest City NC 182 25 F 9 25-29 38:39.4 12:28/M
178 Jill Jennette Tryon NC 194 60 F 1 60-64 38:43.1 12:29/M
179 Heidi Odom Rutherfordton NC 504 47 F 4 45-49 38:53.1 12:33/M
180 Kristi Grishaw Rutherfordton NC 142 54 F 6 50-54 38:53.3 12:33/M
181 William Mott Forest City NC 548 25 M 7 25-29 39:10.1 12:38/M
182 Jennifer Owen Chesnee SC 263 44 F 6 40-44 39:10.8 12:38/M
183 Michael Neady Forest City NC 547 12 M 12 11-12 39:11.6 12:38/M
184 Michelle Coldren Forest City NC 538 38 F 7 35-39 39:16.5 12:40/M
185 Eyrn Harrill 156 28 F 10 25-29 39:32.6 12:45/M
186 Jennifer Ruppe Forest City NC 305 41 F 7 40-44 39:36.8 12:46/M
187 Carliegh Williams Forest City NC 384 9 F 8 9-10 39:42.2 12:48/M
188 Russ Williams Forest City NC 533 35 M 5 35-39 39:42.3 12:48/M
189 Shirley Faini Forest City NC 503 49 F 5 45-49 39:48.8 12:50/M
190 Stephanie Brooks Forest City NC 564 38 F 8 35-39 39:49.4 12:51/M
191 Lauren Millette Ellenboro NC 396 17 F 7 15-19 39:52.3 12:52/M
192 Leigh Harris Ellenboro NC 158 36 F 9 35-39 39:57.8 12:53/M
193 Dylan Smith Forest City NC 330 8 M 10 7- 8 40:14.7 12:59/M
194 Ishmael Panigua Forest City NC 268 8 M 11 7- 8 40:14.8 12:59/M
195 Kelly Crawford Forest City NC 79 50 F 7 50-54 40:19.6 13:00/M
196 Lori S Price Columbus NC 289 47 F 6 45-49 40:21.5 13:01/M
197 Suzanne Hutchins 189 F 1 0- 0 40:24.0 13:02/M
198 Gina Greene Ellenboro NC 138 34 F 5 30-34 40:34.1 13:05/M
199 Charlie Greene Ellenboro NC 137 33 M 2 30-34 40:35.3 13:05/M
200 Melissa Breeden Forest City NC 34 38 F 10 35-39 40:41.8 13:07/M
 
Place Name City Bib No Age Gender Age Group Total Time Pace
201 Leslie Blankenship 25 37 M 6 35-39 40:42.6 13:08/M
202 Dawson Loving Forest City NC 215 8 M 12 7- 8 40:48.8 13:10/M
203 Roxanne Loving Shelby NC 216 28 F 11 25-29 40:49.3 13:10/M
204 Brandon Loving Shelby NC 214 27 M 8 25-29 40:49.4 13:10/M
205 Victoria Velasquez Forest City NC 369 9 F 9 9-10 40:52.4 13:11/M
206 Ty Hutchins Rutherfordton NC 190 6 M 1 5- 6 41:09.1 13:16/M
207 Andeena Torvinen Rutherfordton NC 527 37 F 11 35-39 41:10.9 13:17/M
208 Lisa Morrow 549 51 F 8 50-54 41:23.9 13:21/M
209 Crystal Bradshaw Mooresboro NC 565 30 F 6 30-34 41:24.7 13:21/M
210 Christine Bach Ellenboro NC 513 12 F 13 11-12 41:34.1 13:25/M
211 Cj Smith Forest City NC 328 8 M 13 7- 8 41:44.0 13:28/M
212 Gavin Palmer Ellenboro NC 266 9 M 25 9-10 41:44.3 13:28/M
213 Bobbi Hodge Ellenboro NC 399 30 F 7 30-34 41:45.4 13:28/M
214 Alice McCluney 558 38 F 12 35-39 41:46.5 13:28/M
215 Ian Queen Ellenboro NC 291 9 M 26 9-10 41:56.2 13:32/M
216 Nicole Hamilton Rutherfordton NC 150 47 F 7 45-49 42:00.2 13:33/M
217 Lisa Curtis Forest City NC 83 55 F 2 55-59 42:12.9 13:37/M
218 Mylee Fincher Forest City NC 116 9 F 10 9-10 42:21.2 13:40/M
219 Landon Fulbright Forest City NC 123 10 M 27 9-10 42:22.0 13:40/M
220 Kleber Hernandez Forest City NC 166 11 M 13 11-12 42:24.4 13:41/M
221 Lucas Bright Forest City NC 37 11 M 14 11-12 42:24.7 13:41/M
222 Marshall Parker Rutherfordton NC 271 10 M 28 9-10 42:28.3 13:42/M
223 Zeke McGinnis Forest City NC 232 9 M 29 9-10 42:34.8 13:44/M
224 Kaylan Lynch Forest City NC 219 10 F 11 9-10 42:38.1 13:45/M
225 Abril Delacruz Forest City NC 90 12 F 14 11-12 42:38.4 13:45/M
226 Riley Demaso Forest City NC 91 10 M 30 9-10 42:40.9 13:46/M
227 Kelly Carpenter Ellenboro NC 59 59 F 3 55-59 42:58.8 13:52/M
228 Kara Lail Ellenboro NC 202 52 F 9 50-54 42:58.9 13:52/M
229 Jacob Hudgins Rutherfordton NC 185 9 M 31 9-10 43:09.5 13:55/M
230 Jo Oliver Rutherfordton NC 261 51 F 10 50-54 43:10.2 13:55/M
231 Audrey Peticos Ellenboro NC 579 49 F 8 45-49 43:18.8 13:58/M
232 Calie Holland Forest City NC 179 10 F 12 9-10 43:25.0 14:00/M
233 Emily Hill Forest City NC 172 10 F 13 9-10 43:26.1 14:01/M
234 Olivia Brown Rutherfordton NC 42 12 F 15 11-12 43:27.1 14:01/M
235 Elizabeth Gregory Roebuck SC 141 36 F 13 35-39 43:27.1 14:01/M
236 Rebecca Tuttle Rutherfordton NC 546 29 F 12 25-29 43:30.0 14:02/M
237 Allison Montcastle 561 34 F 8 30-34 43:31.3 14:02/M
238 Sheila Shipp Rutherfordton NC 315 47 F 9 45-49 43:38.4 14:05/M
239 Jia Wilkerson Bostic NC 555 11 F 16 11-12 43:50.0 14:08/M
240 Le Land De Maso Forest City NC 570 6 M 2 5- 6 43:50.6 14:08/M
241 Ethan Houser Forest City NC 183 9 M 32 9-10 43:55.6 14:10/M
242 Thad Harrill Forest City NC 569 40 M 7 40-44 44:02.8 14:12/M
243 Rodney Queen Ellenboro NC 292 41 M 8 40-44 44:03.8 14:13/M
244 Savannah Hill Forest City NC 174 8 F 4 7- 8 44:04.8 14:13/M
245 Hope Hill Forest City NC 173 38 F 14 35-39 44:05.1 14:13/M
246 Janet Champion Forest City NC 68 32 F 9 30-34 44:07.6 14:14/M
247 Heather Phillips Ellenboro NC 275 34 F 10 30-34 44:08.4 14:14/M
248 Star Coffey Forest City NC 71 54 F 11 50-54 44:09.0 14:15/M
249 Heather Grissom Rutherfordton NC 143 39 F 15 35-39 44:10.0 14:15/M
250 Erika Phillips Forest City NC 274 8 F 5 7- 8 44:10.5 14:15/M
251 Gina Harrill Forest City NC 157 43 F 8 40-44 44:17.3 14:17/M
252 Ceaira Shelton Forest City NC 310 14 F 3 13-14 44:23.4 14:19/M
253 Jordan Waters Bostic NC 378 11 M 15 11-12 44:28.3 14:21/M
254 Ryan Moore Forest City NC 247 12 M 16 11-12 44:34.1 14:23/M
255 Mckenzie Verepie Rutherfordton NC 372 11 F 17 11-12 44:52.9 14:28/M
256 Shannon Sims Forest City NC 320 36 F 16 35-39 44:53.0 14:29/M
257 Roscoe Conn 13 54 M 5 50-54 45:12.1 14:35/M
258 Bettina Conn Forest City NC 73 56 F 4 55-59 45:13.1 14:35/M
259 Christopher Piercy Forest City NC 280 15 M 15 15-19 45:16.8 14:36/M
260 Debbie Stowe 526 47 F 10 45-49 45:23.6 14:38/M
261 Robin Robertson Bostic NC 302 53 F 12 50-54 45:31.1 14:41/M
262 Kevin Carpio Forest City NC 63 8 M 14 7- 8 45:48.4 14:46/M
263 Neal Hines Forest City NC 176 10 M 33 9-10 46:08.8 14:53/M
264 Joshua Harbison Forest City NC 154 11 M 17 11-12 46:11.1 14:54/M
265 Charile Freeman 122 49 M 11 45-49 46:27.0 14:59/M
266 Payton Owens Forest City NC 574 12 F 18 11-12 46:30.2 15:00/M
267 Easton Zaffuto Rutherfordton NC 391 11 M 18 11-12 46:56.1 15:08/M
268 Brittney Hall Forest City NC 149 10 F 14 9-10 46:56.7 15:08/M
269 Brittany Piercy Forest City NC 279 11 F 19 11-12 46:57.0 15:09/M
270 Braeden Crawford Forest City NC 77 11 M 19 11-12 46:57.7 15:09/M
271 Sarah Duncan Forest City NC 98 12 F 20 11-12 46:58.6 15:09/M
272 Preston James Ellenboro NC 397 18 M 16 15-19 46:59.2 15:09/M
273 Ben Carpenter Rutherfordton NC 57 9 M 34 9-10 46:59.3 15:09/M
274 Nathan Hopper Rutherfordton NC 181 11 M 20 11-12 47:05.8 15:11/M
275 Joshua Fillers Rutherfordton NC 582 8 M 15 7- 8 47:09.6 15:13/M
276 Erick Onesto Forest City NC 262 9 M 35 9-10 47:11.4 15:13/M
277 Hayley Dobbins Chesnee SC 94 27 F 13 25-29 47:36.3 15:21/M
278 Alexa Arredondo Forest City NC 5 7 F 6 7- 8 47:37.3 15:22/M
279 Lilly Greene Union Mills NC 139 11 F 21 11-12 47:40.1 15:23/M
280 Jeremiah Harbison Forest City NC 153 9 M 36 9-10 47:40.1 15:23/M
281 Jaden Varela Forest City NC 366 9 M 37 9-10 47:43.6 15:24/M
282 Becky McKelvey Rutherfordton NC 233 55 F 5 55-59 47:44.7 15:24/M
283 Kim Morris Tryon NC 250 62 F 2 60-64 47:53.6 15:27/M
284 Ida Buchanan Forest City NC 44 47 F 11 45-49 48:02.7 15:30/M
285 Kadyn Spears Forest City NC 334 10 F 15 9-10 48:03.9 15:30/M
286 Hailey Davis Rutherfordton NC 85 7 F 7 7- 8 48:08.7 15:32/M
287 Eli Warren Forest City NC 376 8 M 16 7- 8 48:16.8 15:34/M
288 Mackenzie Hughes Rutherfordton NC 187 11 F 22 11-12 48:22.6 15:36/M
289 Ethan Lammonds Forest City NC 203 10 M 38 9-10 48:36.1 15:41/M
290 Joseline Panigua Forest City NC 269 10 F 16 9-10 48:38.6 15:41/M
291 Riley Mensch Rutherfordton NC 512 13 F 4 13-14 48:40.8 15:42/M
292 Raquel Hislop Rutherfordton NC 177 10 F 17 9-10 48:41.6 15:42/M
293 Madalyn Hughes Rutherfordton NC 188 11 F 23 11-12 48:43.2 15:43/M
294 Derek Crater Forest City NC 76 11 M 21 11-12 48:45.5 15:44/M
295 Zack Nix Forest City NC 258 11 M 22 11-12 48:47.3 15:44/M
296 Q'Kioja Lathan 204 6 F 2 5- 6 48:49.0 15:45/M
297 Valeria Santiago Forest City NC 307 10 F 18 9-10 49:00.0 15:48/M
298 Hanna Smith Rutherfordton NC 331 10 F 19 9-10 49:06.3 15:50/M
299 Isabella Lopez Herrera Forest City NC 573 11 F 24 11-12 49:07.6 15:51/M
300 Julie Fincher Forest City NC 525 40 F 9 40-44 49:14.3 15:53/M
 
Place Name City Bib No Age Gender Age Group Total Time Pace
301 Landon Hannon Boiling Springs NC 152 10 M 39 9-10 49:19.9 15:55/M
302 David Thomas Bristol TN 352 36 M 7 35-39 49:21.3 15:55/M
303 Dylan Thomas Ellenboro NC 353 10 M 40 9-10 49:22.2 15:55/M
304 Nick Burgess Ellenboro NC 47 11 M 23 11-12 49:23.1 15:56/M
305 Chris Sims Forest City NC 514 36 M 8 35-39 49:31.8 15:58/M
306 Faith Porter Forest City NC 285 10 F 20 9-10 49:39.2 16:01/M
307 Chelsea McEntire 226 16 F 8 15-19 49:54.6 16:06/M
308 Ethan McGinnis Ellenboro NC 229 26 M 9 25-29 49:54.9 16:06/M
309 Elizabeth Withrow Ellenboro NC 385 32 F 11 30-34 49:56.4 16:06/M
310 Deacon Melton 519 8 M 17 7- 8 50:14.0 16:12/M
311 Taylor Alton Rutherfordton NC 2 16 F 9 15-19 50:20.6 16:14/M
312 Courtney Poteat Rutherfordton NC 286 17 F 10 15-19 50:56.3 16:26/M
313 Dakota Eddins Forest City NC 100 10 F 21 9-10 50:57.2 16:26/M
314 Danielle Ensley Rutherfordton NC 110 17 F 11 15-19 50:57.3 16:26/M
315 Gracie Emery Forest City NC 106 9 F 22 9-10 51:04.9 16:28/M
316 Charlie Bradley Ellenboro NC 30 45 M 12 45-49 51:11.3 16:31/M
317 Sebastian Arrowood Forest City NC 8 9 M 41 9-10 51:21.3 16:34/M
318 Kim Deaver Rutherfordton NC 89 52 F 13 50-54 51:28.7 16:36/M
319 Amy Emery Mooresboro NC 105 37 F 17 35-39 51:31.6 16:37/M
320 Davis Melton 522 11 M 24 11-12 51:33.2 16:38/M
321 Carlos Zirando Forest City NC 392 9 M 42 9-10 51:40.0 16:40/M
322 Tara Palmer 267 32 F 12 30-34 51:42.2 16:41/M
323 Cynthia Jones 196 56 F 6 55-59 51:45.5 16:42/M
324 Jason Byrd 53 46 M 13 45-49 52:14.9 16:51/M
325 Jeffrey Phillips Forest City NC 276 8 M 18 7- 8 52:23.1 16:54/M
326 Jenna Bennett 23 8 F 8 7- 8 52:36.1 16:58/M
327 Russ Bennett Forest City NC 24 45 M 14 45-49 52:40.1 16:59/M
328 Joanna Tidball Rutherfordton NC 357 8 F 9 7- 8 52:52.7 17:03/M
329 Donald Anderson Forest City NC 4 9 M 43 9-10 52:54.6 17:04/M
330 Katrina Shambaugh Columbus NC 309 52 F 14 50-54 52:54.8 17:04/M
331 Azlyn Silvers 528 11 F 25 11-12 53:17.5 17:11/M
332 Jocelynn Moody Forest City NC 242 9 F 23 9-10 53:18.3 17:12/M
333 Layla Campbell Ellenboro NC 56 10 F 24 9-10 53:19.0 17:12/M
334 Earrick Parker Forest City NC 270 45 M 15 45-49 53:19.0 17:12/M
335 Shanna Hauss Bostic NC 532 37 F 18 35-39 53:21.5 17:13/M
336 Addison Arrowood Forest City NC 7 11 F 26 11-12 53:36.8 17:17/M
337 Savannah Hill Breeden Forest City NC 35 11 F 27 11-12 53:37.3 17:18/M
338 Heaven Logan Forest City NC 210 12 F 28 11-12 53:40.8 17:19/M
339 Sara Mauney Ellenboro NC 223 64 F 3 60-64 53:44.0 17:20/M
340 Sam Dover Moore SC 97 33 M 3 30-34 53:51.8 17:22/M
341 Eugene Wilkins Forest City NC 382 8 M 19 7- 8 53:54.0 17:23/M
342 Jennifer Elliott Forest City NC 102 38 F 19 35-39 53:56.0 17:24/M
343 Gabby Ponce Forest City NC 283 9 F 25 9-10 53:57.3 17:24/M
344 Sidney Wood 387 F 2 0- 0 53:59.2 17:25/M
345 Jamie McGinnis Ellenboro NC 230 26 F 14 25-29 54:00.6 17:25/M
346 Chrissy Connell Ellenboro NC 74 10 F 26 9-10 54:01.4 17:25/M
347 Alissia Wilkins Forest City NC 523 38 M 9 35-39 54:02.5 17:26/M
348 Donna Ledford Mooresboro NC 205 55 F 7 55-59 54:09.7 17:28/M
349 Jill Price Forest City NC 288 49 F 12 45-49 54:10.0 17:28/M
350 Trinity Parker Forest City NC 272 9 F 27 9-10 54:14.1 17:30/M
351 Carrie Wood Ellenboro NC 386 39 F 20 35-39 54:22.3 17:32/M
352 Maleik Hickman 167 8 M 20 7- 8 54:36.6 17:37/M
353 Otto Waters Forest City NC 563 11 M 25 11-12 54:49.6 17:41/M
354 Emma Millard Rutherfordton NC 235 9 F 28 9-10 55:13.2 17:49/M
355 Lori McEntire Rutherfordton NC 228 42 F 10 40-44 55:19.3 17:51/M
356 Brianna Marks Forest City NC 221 10 F 29 9-10 55:34.5 17:55/M
357 William Brewer Rutherfordton NC 540 58 M 3 55-59 55:36.4 17:56/M
358 Debbie Brewer Rutherfordton NC 36 59 F 8 55-59 55:36.6 17:56/M
359 Kayla Moore Bostic NC 245 12 F 29 11-12 55:37.7 17:56/M
360 Lisa Bradley Ellenboro NC 32 41 F 11 40-44 56:02.3 18:05/M
361 Jose Ponce Forest City NC 284 7 M 21 7- 8 56:08.2 18:06/M
362 Christine Hensley Ellenboro NC 165 28 F 15 25-29 56:08.7 18:06/M
363 Breanne Church Mooresboro NC 69 28 F 16 25-29 56:12.7 18:08/M
364 Ann Smawley Rutherfordton NC 324 63 F 4 60-64 56:16.7 18:09/M
365 Natalie Brown Rutherfordton NC 41 37 F 21 35-39 56:17.0 18:09/M
366 Kelsey Church 70 23 F 2 20-24 56:24.3 18:12/M
367 Jackson Byers Forest City NC 52 10 M 44 9-10 56:27.7 18:13/M
368 Lindsey Melton 518 35 F 22 35-39 56:31.0 18:14/M
369 Shane Phillips Forest City NC 277 10 M 45 9-10 56:35.9 18:15/M
370 Danielle Verepie Rutherfordton NC 371 48 F 13 45-49 56:49.1 18:20/M
371 Emma McEntire Rutherfordton NC 227 11 F 30 11-12 56:49.3 18:20/M
372 Brandy Fox Forest City NC 120 31 F 13 30-34 56:50.6 18:20/M
373 Summer Smith Forest City 530 11 F 31 11-12 56:51.7 18:20/M
374 Destinee Hines Forest City NC 175 12 F 32 11-12 57:21.6 18:30/M
375 Nevianna Mullinax Forest City NC 257 9 F 30 9-10 57:21.7 18:30/M
376 Yalanda Mosley Henrietta NC 536 39 F 23 35-39 57:25.8 18:31/M
377 Jennifer McBrayer Forest City NC 393 44 F 12 40-44 58:03.5 18:44/M
378 Shawn Ridings Forest City NC 296 11 M 26 11-12 58:22.7 18:50/M
379 Courtney Atkins Forest City NC 10 25 F 17 25-29 58:24.4 18:50/M
380 Sheli Jenkins Forest City NC 193 32 F 14 30-34 58:25.2 18:51/M
381 Kamdyn Robinson Forest City NC 303 10 M 46 9-10 58:25.4 18:51/M
382 Jerrell Mosley Forest City NC 255 10 M 47 9-10 58:26.6 18:51/M
383 Casey Ponce Mooresboro NC 566 29 F 18 25-29 58:28.3 18:52/M
384 Jaylen Hagen Forest City NC 148 8 M 22 7- 8 59:06.0 19:04/M
385 Brynna Glover Forest City NC 125 13 F 5 13-14 59:07.6 19:04/M
386 Abigail Thompson Forest City NC 354 8 F 10 7- 8 59:07.9 19:04/M
387 Alaiah Mosley Forest City NC 253 7 F 11 7- 8 59:10.6 19:05/M
388 Arianna Stywall Forest City NC 340 9 F 31 9-10 59:26.4 19:10/M
389 Kailyn Skinner Forest City NC 323 9 F 32 9-10 59:56.9 19:20/M
390 Kerri Keever Rutherfordton NC 200 36 F 24 35-39 59:58.2 19:21/M
391 Ashley Hodges Forest City NC 178 8 F 12 7- 8 1:00:01.0 19:22/M
392 Makiyah Carter Forest City NC 67 10 F 33 9-10 1:00:04.0 19:23/M
393 Ava McDonald Forest City NC 225 10 F 34 9-10 1:00:04.8 19:23/M
394 Christopher Morrow Forest City NC 251 8 M 23 7- 8 1:00:37.5 19:33/M
395 Lily Gait Rutherfordton NC 124 7 F 13 7- 8 1:00:40.6 19:34/M
396 Kim Toney Ellenboro NC 361 47 F 14 45-49 1:00:40.8 19:34/M
397 Lesley Suttle Forest City NC 343 38 F 25 35-39 1:00:43.1 19:35/M
398 Macie Hoyle Forest City NC 577 0 F 3 0- 0 1:00:48.2 19:37/M
399 Virginia Morrow Forest City NC 543 36 F 26 35-39 1:00:48.6 19:37/M
400 Yates McGinnis Forest City NC 231 10 M 48 9-10 1:01:06.5 19:43/M
 
Place Name City Bib No Age Gender Age Group Total Time Pace
401 Peyton Hoyle Rutherfordton NC 511 12 F 33 11-12 1:01:10.6 19:44/M
402 Layla Carpenter Rutherfordton NC 60 11 F 34 11-12 1:01:10.9 19:44/M
403 Addison Hampton Forest City NC 151 10 F 35 9-10 1:01:17.2 19:46/M
404 Jaiya Mills Forest City NC 239 10 F 36 9-10 1:01:20.8 19:47/M
405 Camelia Lozano Forest City NC 218 9 F 37 9-10 1:01:29.0 19:50/M
406 Caitlin Carpenter Rutherfordton NC 58 34 F 15 30-34 1:01:46.1 19:55/M
407 Charlotte Baynard Forest City NC 16 60 F 5 60-64 1:02:00.5 20:00/M
408 Jack McBrayer Forest City NC 395 10 M 49 9-10 1:02:06.0 20:02/M
409 Nina Lopez Forest City NC 211 12 F 35 11-12 1:02:12.8 20:04/M
410 Brooklyn Anderson Forest City NC 3 10 F 38 9-10 1:02:21.8 20:07/M
411 Gracie Crain Rutherfordton NC 75 8 F 14 7- 8 1:02:52.4 20:17/M
412 Tammie Ash Shelby NC 9 47 F 15 45-49 1:03:05.8 20:21/M
413 Kaylee Beam Forest City NC 17 8 F 15 7- 8 1:03:22.1 20:26/M
414 Tara Mauney Ellenboro NC 224 36 F 27 35-39 1:03:22.2 20:26/M
415 Jaden Camp Forest City NC 55 9 F 39 9-10 1:04:04.5 20:40/M
416 Matti Bostic Rutherfordton NC 27 8 F 16 7- 8 1:04:06.5 20:41/M
417 Kelly Sisk Rutherfordton NC 322 39 F 28 35-39 1:04:11.1 20:42/M
418 Brian Sisk Rutherfordton NC 321 43 M 9 40-44 1:04:12.2 20:43/M
419 Cameron Watt 14 10 M 50 9-10 1:07:51.3 21:53/M
420 Jalyan Johnson Rutherfordton NC 195 8 M 24 7- 8 1:07:53.9 21:54/M
421 Meg Prevatte Rutherfordton NC 287 8 F 17 7- 8 1:08:04.7 21:57/M
422 Addison Hill Rutherfordton NC 168 10 F 40 9-10 1:08:13.5 22:00/M
423 Nico Guariello Rutherfordton NC 144 9 M 51 9-10 1:08:16.0 22:01/M
424 Hill Carter Rutherfordton NC 65 8 M 25 7- 8 1:08:19.1 22:02/M